Terminal Aerodrome Forecast
Issued by NWS

Home | Current Version | Previous Version | Text Only | Print | Product List | Glossary On
Versions: 1 2 3 4 5 6 7 8 9 10 11 12 13 14 15 16 17 18 19 20 21 22 23 24 25 26 27
000
FTPA31 PHFO 240808 AAA
TAFMDY
TAF AMD
PMDY 240808Z 2408/2506 10015KT P6SM SCT025 BKN040
      TEMPO 2408/2411 BKN025=

USA.gov is the U.S. government's official web portal to all federal, state and local government web resources and services.